createdAt,value
2023-12-14T05:07:25.206Z,99352.56
2023-12-14T05:10:27.965Z,99352.56
2023-12-14T05:13:31.091Z,99370.09
2023-12-14T05:16:33.591Z,99365.84
2023-12-14T05:19:37.430Z,99360.28
2023-12-14T05:22:40.519Z,99374.25
2023-12-14T05:25:42.941Z,99376.13
2023-12-14T05:28:46.141Z,99385.72
2023-12-14T05:31:48.570Z,99386.75
2023-12-14T05:34:51.543Z,99391.37
2023-12-14T05:37:54.063Z,99392.34
2023-12-14T05:40:56.539Z,99409.09
2023-12-14T05:43:59.958Z,99410.25
2023-12-14T05:47:02.481Z,99409.81
2023-12-14T05:50:05.730Z,99425.84
2023-12-14T05:53:08.211Z,99430.84
2023-12-14T05:56:10.531Z,99430.31
2023-12-14T05:59:13.120Z,99432.91
2023-12-14T06:02:15.508Z,99442.44
2023-12-14T06:05:18.486Z,99446.38
2023-12-14T06:08:20.811Z,99441.81
2023-12-14T06:11:24.590Z,99451.81
2023-12-14T06:14:27.853Z,99451.97
2023-12-14T06:17:31.404Z,99451.09
2023-12-14T06:20:33.971Z,99450.88
2023-12-14T06:23:37.431Z,99449.00
2023-12-14T06:26:46.264Z,99456.12
2023-12-14T06:29:48.927Z,99464.41
2023-12-14T06:32:51.126Z,99469.63
2023-12-14T06:35:53.562Z,99470.88
2023-12-14T06:38:56.522Z,99475.94
2023-12-14T06:42:01.087Z,99467.75
2023-12-14T06:45:04.589Z,99476.09
2023-12-14T06:48:07.180Z,99477.66
2023-12-14T06:51:09.622Z,99483.31
2023-12-14T06:54:12.301Z,99493.06
2023-12-14T06:57:14.668Z,99488.16
2023-12-14T07:00:17.622Z,99493.59
2023-12-14T07:03:20.160Z,99497.87
2023-12-14T07:06:23.641Z,99499.31
2023-12-14T07:09:26.578Z,99508.91
2023-12-14T07:12:31.302Z,99516.38
2023-12-14T07:15:34.008Z,99524.59
2023-12-14T07:18:38.657Z,99538.44
2023-12-14T07:21:40.932Z,99531.28
2023-12-14T07:24:52.180Z,99537.38
2023-12-14T07:27:55.325Z,99542.41
2023-12-14T07:30:58.289Z,99549.78
2023-12-14T07:34:00.595Z,99553.31
2023-12-14T07:37:03.073Z,99551.19
2023-12-14T07:40:05.945Z,99555.38
2023-12-14T07:43:11.067Z,99551.97
2023-12-14T07:46:13.266Z,99566.87
2023-12-14T07:49:16.158Z,99570.47
2023-12-14T07:52:18.658Z,99569.09
2023-12-14T07:55:21.897Z,99584.16
2023-12-14T07:58:24.215Z,99586.16
2023-12-14T08:01:26.884Z,99586.38
2023-12-14T08:04:29.358Z,99588.56
2023-12-14T08:07:32.757Z,99594.75
2023-12-14T08:10:35.471Z,99602.91
2023-12-14T08:13:38.973Z,99602.63
2023-12-14T08:16:44.652Z,99607.66
2023-12-14T08:19:47.052Z,99616.19
2023-12-14T08:22:49.874Z,99621.03
2023-12-14T08:25:52.161Z,99626.97
2023-12-14T08:28:54.687Z,99627.97
2023-12-14T08:32:00.481Z,99632.53
2023-12-14T08:35:03.738Z,99634.84
2023-12-14T08:38:06.141Z,99644.69
2023-12-14T08:41:09.012Z,99636.84
2023-12-14T08:44:11.564Z,99639.66
2023-12-14T08:47:14.081Z,99643.59
2023-12-14T08:50:16.918Z,99639.09
2023-12-14T08:53:19.415Z,99642.56
2023-12-14T08:56:22.163Z,99642.84
2023-12-14T08:59:24.802Z,99648.59
2023-12-14T09:02:29.103Z,99655.28
2023-12-14T09:05:31.873Z,99661.75
2023-12-14T09:08:34.255Z,99670.72
2023-12-14T09:11:37.514Z,99675.19
2023-12-14T09:14:39.707Z,99666.81
2023-12-14T09:17:43.567Z,99668.44
2023-12-14T09:20:46.106Z,99668.41
2023-12-14T09:23:48.804Z,99670.66
2023-12-14T09:26:50.940Z,99680.84
2023-12-14T09:29:53.349Z,99669.72
2023-12-14T09:32:55.778Z,99674.56
2023-12-14T09:35:58.291Z,99680.75
2023-12-14T09:39:00.575Z,99685.69
2023-12-14T09:42:08.313Z,99691.91
2023-12-14T09:45:10.725Z,99693.00
2023-12-14T09:48:14.280Z,99700.50
2023-12-14T09:51:17.305Z,99706.66
2023-12-14T09:54:19.697Z,99701.97
2023-12-14T09:57:26.713Z,99694.44
2023-12-14T10:00:37.332Z,99705.72
2023-12-14T10:03:39.907Z,99698.06
2023-12-14T10:06:44.116Z,99711.78
2023-12-14T10:09:46.922Z,99714.25
2023-12-14T10:12:56.693Z,99725.69
2023-12-14T10:16:00.125Z,99731.38
2023-12-14T10:19:02.889Z,99731.97
2023-12-14T10:22:09.564Z,99732.13
2023-12-14T10:25:12.168Z,99735.38
2023-12-14T10:28:16.213Z,99739.16
2023-12-14T10:31:23.768Z,99735.94
2023-12-14T10:34:26.538Z,99749.84
2023-12-14T10:37:30.739Z,99742.03
2023-12-14T10:40:35.416Z,99746.88
2023-12-14T10:43:48.438Z,99745.06
2023-12-14T10:46:57.251Z,99755.19
2023-12-14T10:50:02.851Z,99761.94
2023-12-14T10:53:06.641Z,99759.84
2023-12-14T10:56:12.004Z,99762.34
2023-12-14T10:59:19.331Z,99766.41
2023-12-14T11:02:21.469Z,99765.97
2023-12-14T11:05:31.620Z,99775.94
2023-12-14T11:08:35.788Z,99775.94
2023-12-14T11:12:10.137Z,99786.66
2023-12-14T11:15:12.331Z,99786.91
2023-12-14T11:18:14.824Z,99785.03
2023-12-14T11:21:23.570Z,99784.72
2023-12-14T11:24:27.072Z,99773.22
2023-12-14T11:27:30.727Z,99779.97
2023-12-14T11:30:44.124Z,99787.28
2023-12-14T11:33:58.729Z,99782.97
2023-12-14T11:37:01.679Z,99794.22
2023-12-14T11:40:06.309Z,99796.06
2023-12-14T11:43:09.601Z,99795.84
2023-12-14T11:46:13.023Z,99798.25
2023-12-14T11:49:16.764Z,99787.28
2023-12-14T11:52:19.478Z,99797.25
2023-12-14T11:55:22.914Z,99798.59
2023-12-14T11:58:25.864Z,99802.69
2023-12-14T12:01:29.531Z,99797.47
2023-12-14T12:04:32.219Z,99804.88
2023-12-14T12:07:34.856Z,99810.37
2023-12-14T12:10:38.831Z,99810.84
2023-12-14T12:13:41.310Z,99805.47
2023-12-14T12:16:43.863Z,99809.22
2023-12-14T12:19:46.404Z,99810.06
2023-12-14T12:22:48.931Z,99826.47
2023-12-14T12:25:51.159Z,99824.38
2023-12-14T12:28:53.762Z,99830.31
2023-12-14T12:31:56.037Z,99831.03
2023-12-14T12:34:58.601Z,99840.37
2023-12-14T12:38:00.972Z,99843.84
2023-12-14T12:41:03.655Z,99856.37
2023-12-14T12:44:07.178Z,99853.84
2023-12-14T12:47:11.551Z,99861.81
2023-12-14T12:50:14.799Z,99857.53
2023-12-14T12:53:17.586Z,99868.84
2023-12-14T12:56:20.593Z,99873.31
2023-12-14T12:59:23.457Z,99877.31
2023-12-14T13:02:25.681Z,99890.00
2023-12-14T13:05:28.453Z,99895.78
2023-12-14T13:08:30.666Z,99897.81
2023-12-14T13:11:33.703Z,99899.09
2023-12-14T13:14:35.978Z,99897.19
2023-12-14T13:17:39.156Z,99897.03
2023-12-14T13:20:41.571Z,99898.75
2023-12-14T13:23:45.110Z,99908.78
2023-12-14T13:26:47.983Z,99903.41
2023-12-14T13:29:50.483Z,99909.09
2023-12-14T13:32:54.839Z,99911.13
2023-12-14T13:35:57.442Z,99924.28
2023-12-14T13:39:00.328Z,99924.47
2023-12-14T13:42:03.150Z,99925.66
2023-12-14T13:45:06.479Z,99931.00
2023-12-14T13:48:09.959Z,99940.69
2023-12-14T13:51:12.191Z,99939.63
2023-12-14T13:54:14.599Z,99947.50
2023-12-14T13:57:16.825Z,99949.06
2023-12-14T14:00:20.324Z,99965.53
2023-12-14T14:03:24.565Z,99965.88
2023-12-14T14:06:26.991Z,99982.16
2023-12-14T14:09:29.613Z,99987.03
2023-12-14T14:12:31.798Z,99991.28
2023-12-14T14:15:34.283Z,99992.59
2023-12-14T14:18:36.733Z,99993.84
2023-12-14T14:21:39.870Z,99995.75
2023-12-14T14:24:42.069Z,100002.34
2023-12-14T14:27:47.868Z,100013.25
2023-12-14T14:30:50.222Z,100008.47
2023-12-14T14:33:52.745Z,100021.88
2023-12-14T14:36:54.991Z,100020.84
2023-12-14T14:39:57.494Z,100028.44
2023-12-14T14:42:59.837Z,100034.94
2023-12-14T14:46:02.566Z,100028.19
2023-12-14T14:49:04.868Z,100031.78
2023-12-14T14:52:07.984Z,100034.91
2023-12-14T14:55:10.383Z,100040.87
2023-12-14T14:58:12.928Z,100059.84
2023-12-14T15:01:15.240Z,100058.31
2023-12-14T15:04:18.471Z,100054.53
2023-12-14T15:07:20.679Z,100063.25
2023-12-14T15:10:23.138Z,100065.47
2023-12-14T15:13:25.717Z,100077.25
2023-12-14T15:16:28.257Z,100071.84
2023-12-14T15:19:30.402Z,100077.22
2023-12-14T15:22:36.812Z,100091.37
2023-12-14T15:25:39.179Z,100088.69
2023-12-14T15:28:41.908Z,100099.62
2023-12-14T15:31:44.236Z,100109.97
2023-12-14T15:34:46.814Z,100111.59
2023-12-14T15:37:49.071Z,100124.63
2023-12-14T15:40:51.589Z,100128.50
2023-12-14T15:43:53.866Z,100129.19
2023-12-14T15:46:56.390Z,100141.47
2023-12-14T15:49:58.591Z,100145.47
2023-12-14T15:53:01.105Z,100143.22
2023-12-14T15:56:03.576Z,100148.63
2023-12-14T15:59:08.221Z,100144.34
2023-12-14T16:02:10.568Z,100156.59
2023-12-14T16:05:13.186Z,100150.69
2023-12-14T16:08:15.518Z,100156.63
2023-12-14T16:11:17.981Z,100165.87
2023-12-14T16:14:20.267Z,100165.47
2023-12-14T16:17:22.736Z,100175.94
2023-12-14T16:20:26.855Z,100175.09
2023-12-14T16:23:29.396Z,100183.50
2023-12-14T16:26:32.391Z,100185.06
2023-12-14T16:29:37.956Z,100189.16
2023-12-14T16:32:40.512Z,100197.72
2023-12-14T16:35:43.562Z,100204.72
